createdAt,value
2019-03-26T14:57:47.650Z,14.05
2019-03-26T14:58:26.578Z,13.98
2019-03-26T14:59:05.088Z,13.83
2019-03-26T14:59:44.411Z,13.32
2019-03-26T15:00:23.789Z,12.85
2019-03-26T15:00:59.854Z,14.68
2019-03-26T15:01:37.405Z,14.38
2019-03-26T15:05:18.901Z,14.60
2019-03-26T15:05:58.712Z,13.80
2019-03-26T15:06:38.343Z,14.65
2019-03-26T15:07:17.238Z,15.20
2019-03-26T15:07:56.599Z,14.55
2019-03-26T15:08:34.464Z,12.90
2019-03-26T15:09:47.495Z,13.20
2019-03-26T15:10:23.685Z,13.43
2019-03-26T15:11:08.275Z,12.37
2019-03-26T15:11:41.880Z,12.23
2019-03-26T15:12:20.950Z,12.37
2019-03-26T15:12:59.302Z,11.30
2019-03-26T15:13:39.489Z,13.98
2019-03-26T15:14:18.859Z,12.98
2019-03-26T15:14:58.351Z,12.03
2019-03-26T15:15:37.410Z,12.93
2019-03-26T15:16:17.282Z,12.88
2019-03-26T15:16:58.296Z,12.63
2019-03-26T15:17:36.605Z,11.78
2019-03-26T15:18:15.331Z,11.85
2019-03-26T15:18:53.521Z,12.35
2019-03-26T15:19:33.112Z,12.37
2019-03-26T15:20:09.320Z,11.60
2019-03-26T15:20:48.850Z,12.10
2019-03-26T15:21:24.542Z,12.33
2019-03-26T15:22:03.593Z,12.50
2019-03-26T15:22:39.285Z,12.50
2019-03-26T15:23:18.057Z,12.60
2019-03-26T15:23:53.343Z,12.43
2019-03-26T15:24:31.608Z,12.28
2019-03-26T15:25:10.783Z,11.40
2019-03-26T15:25:48.613Z,12.50
2019-03-26T15:26:26.476Z,12.37
2019-03-26T15:27:04.535Z,12.13
2019-03-26T15:27:39.780Z,12.40
